createdAt,value
2022-09-12T00:00:14.260Z,60.33
2022-09-12T00:02:15.810Z,60.31
2022-09-12T00:04:17.508Z,60.17
2022-09-12T00:06:23.330Z,60.76
2022-09-12T00:08:24.950Z,60.75
2022-09-12T00:10:26.919Z,60.72
2022-09-12T00:12:28.434Z,60.92
2022-09-12T00:14:30.038Z,61.16
2022-09-12T00:16:35.676Z,61.42
2022-09-12T00:18:37.249Z,61.16
2022-09-12T00:20:41.874Z,60.12
2022-09-12T00:22:43.456Z,61.06
2022-09-12T00:24:45.204Z,60.53
2022-09-12T00:26:47.142Z,60.91
2022-09-12T00:28:48.682Z,60.44
2022-09-12T00:30:50.571Z,60.72
2022-09-12T00:32:53.371Z,60.79
2022-09-12T00:34:54.890Z,60.42
2022-09-12T00:36:56.339Z,60.94
2022-09-12T00:38:58.122Z,60.78
2022-09-12T00:40:59.655Z,61.12
2022-09-12T00:43:01.204Z,60.48
2022-09-12T00:45:02.872Z,61.29
2022-09-12T00:47:10.421Z,60.15
2022-09-12T00:49:18.637Z,60.33
2022-09-12T00:51:20.682Z,61.79
2022-09-12T00:53:22.507Z,61.10
2022-09-12T00:55:26.455Z,61.14
2022-09-12T00:57:32.157Z,61.05
2022-09-12T00:59:39.251Z,61.12
2022-09-12T01:01:42.903Z,60.88
2022-09-12T01:03:44.826Z,61.07
2022-09-12T01:05:58.944Z,60.75
2022-09-12T01:08:02.261Z,60.71
2022-09-12T01:10:05.015Z,61.31
2022-09-12T01:12:06.652Z,60.79
2022-09-12T01:14:08.925Z,60.75
2022-09-12T01:16:10.520Z,60.39
2022-09-12T01:18:20.668Z,60.50
2022-09-12T01:20:41.363Z,60.15
2022-09-12T01:23:11.625Z,61.15
2022-09-12T01:25:27.372Z,61.47
2022-09-12T01:27:46.050Z,61.52
2022-09-12T01:30:24.187Z,61.19
2022-09-12T01:32:40.580Z,61.09
2022-09-12T01:34:49.278Z,60.79
2022-09-12T01:37:04.585Z,61.56
2022-09-12T01:39:16.007Z,61.09
2022-09-12T01:41:25.963Z,61.38
2022-09-12T01:43:34.400Z,61.67
2022-09-12T01:45:44.462Z,61.77
2022-09-12T01:47:51.845Z,62.21
2022-09-12T01:50:00.452Z,61.74
2022-09-12T01:52:09.220Z,61.23
2022-09-12T01:54:16.594Z,62.25
2022-09-12T01:56:21.948Z,61.78
2022-09-12T01:58:28.596Z,61.71
2022-09-12T02:00:32.655Z,60.48
2022-09-12T02:02:39.051Z,60.55
2022-09-12T02:04:48.634Z,60.50
2022-09-12T02:06:54.582Z,60.86
2022-09-12T02:09:00.371Z,60.66
2022-09-12T02:11:06.937Z,61.81
2022-09-12T02:13:14.885Z,61.04
2022-09-12T02:15:20.563Z,62.16
2022-09-12T02:17:24.464Z,62.23
2022-09-12T02:19:31.308Z,62.19
2022-09-12T02:21:38.469Z,61.79
2022-09-12T02:23:45.777Z,61.79
2022-09-12T02:25:50.661Z,62.98
2022-09-12T02:27:57.380Z,63.13
2022-09-12T02:29:59.859Z,61.97
2022-09-12T02:32:05.985Z,62.35
2022-09-12T02:34:11.944Z,62.05
2022-09-12T02:36:23.280Z,61.83
2022-09-12T02:38:30.915Z,61.44
2022-09-12T02:40:34.673Z,61.80
2022-09-12T02:42:36.829Z,61.98
2022-09-12T02:44:38.341Z,61.76
2022-09-12T02:46:44.324Z,61.69
2022-09-12T02:48:45.918Z,62.10
2022-09-12T02:50:47.625Z,61.92
2022-09-12T02:52:50.286Z,62.01
2022-09-12T02:54:55.052Z,61.76
2022-09-12T02:56:56.638Z,61.69
2022-09-12T02:59:02.504Z,62.11
2022-09-12T03:01:14.381Z,62.15
2022-09-12T03:03:47.473Z,61.64
2022-09-12T03:05:57.393Z,61.67
2022-09-12T03:08:22.349Z,61.74
2022-09-12T03:10:32.946Z,61.58
2022-09-12T03:12:47.211Z,61.81
2022-09-12T03:15:04.950Z,62.44
2022-09-12T03:17:14.398Z,62.59
2022-09-12T03:19:25.315Z,61.79
2022-09-12T03:21:33.142Z,61.12
2022-09-12T03:23:39.460Z,61.83
2022-09-12T03:25:48.659Z,61.83
2022-09-12T03:27:57.255Z,61.45
2022-09-12T03:30:00.074Z,62.00
2022-09-12T03:32:01.992Z,61.77
2022-09-12T03:34:03.668Z,61.90
2022-09-12T03:36:05.506Z,62.05
2022-09-12T03:38:07.058Z,61.65
2022-09-12T03:40:10.460Z,61.09
2022-09-12T03:42:13.377Z,61.71
2022-09-12T03:44:15.301Z,60.95
2022-09-12T03:46:16.937Z,61.48
2022-09-12T03:48:18.434Z,60.28
2022-09-12T03:50:19.981Z,60.88
2022-09-12T03:52:21.509Z,61.23
2022-09-12T03:54:23.372Z,61.37
2022-09-12T03:56:24.862Z,61.24
2022-09-12T03:58:30.826Z,60.47
2022-09-12T04:00:32.318Z,61.12
2022-09-12T04:02:33.851Z,60.90
2022-09-12T04:04:35.621Z,61.56
2022-09-12T04:06:37.117Z,62.04
2022-09-12T04:08:38.975Z,61.19
2022-09-12T04:10:40.557Z,62.16
2022-09-12T04:12:42.326Z,62.10
2022-09-12T04:14:45.176Z,62.05
2022-09-12T04:16:46.755Z,61.09
2022-09-12T04:18:48.505Z,62.00
2022-09-12T04:20:50.102Z,61.69
2022-09-12T04:22:51.838Z,61.93
2022-09-12T04:24:53.474Z,62.06
2022-09-12T04:26:55.495Z,61.17
2022-09-12T04:28:57.303Z,61.42
2022-09-12T04:31:04.293Z,61.15
2022-09-12T04:33:08.453Z,61.55
2022-09-12T04:35:10.070Z,60.84
2022-09-12T04:37:11.555Z,61.44
2022-09-12T04:39:13.063Z,62.48
2022-09-12T04:41:16.200Z,61.75
2022-09-12T04:43:17.690Z,60.99
2022-09-12T04:45:19.209Z,61.27
2022-09-12T04:47:22.093Z,61.38
2022-09-12T04:49:23.589Z,61.49
2022-09-12T04:51:27.980Z,61.62
2022-09-12T04:53:29.632Z,61.64
2022-09-12T04:55:33.989Z,61.10
2022-09-12T04:57:35.876Z,61.79
2022-09-12T04:59:38.646Z,62.21
2022-09-12T05:01:40.410Z,61.81
2022-09-12T05:03:44.346Z,62.61
2022-09-12T05:05:45.879Z,62.85
2022-09-12T05:07:47.418Z,61.68
2022-09-12T05:09:48.939Z,62.52
2022-09-12T05:12:06.056Z,62.80
2022-09-12T05:14:07.604Z,62.92
2022-09-12T05:16:11.656Z,62.13
2022-09-12T05:18:13.265Z,62.77
2022-09-12T05:20:16.265Z,62.36
2022-09-12T05:22:17.779Z,63.10
2022-09-12T05:24:19.412Z,61.75
2022-09-12T05:26:21.447Z,62.65
2022-09-12T05:28:24.113Z,62.52
2022-09-12T05:30:25.706Z,62.18
2022-09-12T05:32:31.151Z,63.09
2022-09-12T05:34:32.653Z,62.89
2022-09-12T05:36:36.124Z,62.59
2022-09-12T05:38:37.805Z,62.88
2022-09-12T05:40:39.320Z,62.22
2022-09-12T05:42:41.086Z,62.60
2022-09-12T05:44:42.581Z,61.54
2022-09-12T05:46:45.270Z,61.80
2022-09-12T05:48:48.686Z,61.43
2022-09-12T05:50:51.330Z,61.61
2022-09-12T05:52:54.260Z,61.88
2022-09-12T05:54:55.805Z,61.96
2022-09-12T05:56:57.333Z,62.46
2022-09-12T05:59:00.620Z,62.34
2022-09-12T06:01:04.229Z,62.04
2022-09-12T06:03:05.930Z,62.77
2022-09-12T06:05:07.892Z,63.81
2022-09-12T06:07:09.438Z,63.24
2022-09-12T06:09:13.862Z,62.19
2022-09-12T06:11:17.882Z,60.51
2022-09-12T06:13:19.625Z,61.55
2022-09-12T06:15:21.145Z,61.39
2022-09-12T06:17:22.716Z,62.09
2022-09-12T06:19:24.244Z,62.87
2022-09-12T06:21:26.628Z,63.58
2022-09-12T06:23:28.157Z,63.46
2022-09-12T06:25:31.048Z,63.58
2022-09-12T06:27:32.542Z,63.64
2022-09-12T06:29:34.094Z,64.06
2022-09-12T06:31:36.990Z,63.58
2022-09-12T06:33:40.572Z,63.36
2022-09-12T06:35:42.334Z,63.42
2022-09-12T06:37:44.306Z,63.43
2022-09-12T06:39:46.958Z,63.56
2022-09-12T06:41:51.205Z,63.83
2022-09-12T06:43:53.580Z,63.79
2022-09-12T06:45:55.202Z,64.16
2022-09-12T06:47:56.741Z,63.78
2022-09-12T06:49:58.349Z,63.91
2022-09-12T06:51:59.825Z,65.10
2022-09-12T06:54:01.959Z,63.13
2022-09-12T06:56:06.306Z,62.97
2022-09-12T06:58:09.331Z,62.95
2022-09-12T07:00:12.116Z,63.03
2022-09-12T07:02:13.716Z,63.72
2022-09-12T07:04:15.284Z,63.73
2022-09-12T07:06:18.869Z,63.87
2022-09-12T07:08:20.508Z,63.43
2022-09-12T07:10:22.492Z,63.71
2022-09-12T07:12:24.065Z,63.16
2022-09-12T07:14:27.212Z,62.83
2022-09-12T07:16:29.219Z,62.75
2022-09-12T07:18:31.684Z,62.67
2022-09-12T07:20:33.340Z,62.28
2022-09-12T07:22:34.921Z,61.39
2022-09-12T07:24:36.483Z,60.71
2022-09-12T07:26:39.293Z,60.02
2022-09-12T07:28:40.947Z,60.83
2022-09-12T07:30:43.907Z,60.68
2022-09-12T07:32:46.735Z,59.94
2022-09-12T07:34:48.235Z,59.88
2022-09-12T07:36:49.716Z,59.37
2022-09-12T07:38:57.221Z,61.30
2022-09-12T07:40:59.247Z,60.04
2022-09-12T07:43:00.971Z,59.81
2022-09-12T07:45:02.713Z,60.01
2022-09-12T07:47:06.042Z,60.45
2022-09-12T07:49:08.553Z,60.54
2022-09-12T07:51:11.884Z,60.37
2022-09-12T07:53:13.539Z,60.83
2022-09-12T07:55:15.294Z,59.12
2022-09-12T07:57:16.851Z,58.38
2022-09-12T07:59:30.205Z,58.87
2022-09-12T08:01:42.934Z,57.78
2022-09-12T08:03:47.911Z,58.32
2022-09-12T08:05:49.499Z,58.82
2022-09-12T08:07:53.634Z,57.93
2022-09-12T08:09:58.879Z,57.96
2022-09-12T08:12:00.529Z,58.88
2022-09-12T08:14:02.238Z,58.49
2022-09-12T08:16:05.765Z,58.52
2022-09-12T08:18:07.300Z,59.08
2022-09-12T08:20:10.412Z,57.46
2022-09-12T08:22:12.094Z,58.13
2022-09-12T08:24:14.084Z,57.07
2022-09-12T08:26:15.618Z,57.41
2022-09-12T08:28:17.260Z,55.88
2022-09-12T08:30:18.772Z,55.54
2022-09-12T08:32:20.323Z,57.51
2022-09-12T08:34:21.864Z,55.72
2022-09-12T08:36:26.983Z,57.04
2022-09-12T08:38:29.695Z,54.99
2022-09-12T08:40:33.142Z,57.00
2022-09-12T08:42:48.573Z,54.75
2022-09-12T08:45:05.116Z,58.54
2022-09-12T08:47:28.747Z,56.59
2022-09-12T08:49:33.526Z,56.22
2022-09-12T08:51:36.993Z,59.01
2022-09-12T08:53:39.347Z,56.08
2022-09-12T08:55:43.660Z,56.25
2022-09-12T08:57:45.698Z,55.85
2022-09-12T08:59:47.254Z,56.61
2022-09-12T09:01:52.230Z,58.43
2022-09-12T09:04:09.184Z,57.70
2022-09-12T09:06:21.487Z,56.81
2022-09-12T09:08:42.676Z,54.55
2022-09-12T09:10:49.455Z,56.89
2022-09-12T09:12:56.937Z,55.61
2022-09-12T09:15:13.014Z,56.52
2022-09-12T09:17:19.884Z,53.29
2022-09-12T09:19:25.786Z,53.62
2022-09-12T09:21:32.368Z,54.54
2022-09-12T09:23:40.786Z,53.34
2022-09-12T09:25:50.717Z,53.75
2022-09-12T09:27:58.256Z,53.59
2022-09-12T09:30:00.862Z,54.46
2022-09-12T09:32:10.418Z,55.49
2022-09-12T09:34:16.718Z,53.74
2022-09-12T09:36:21.763Z,53.69
2022-09-12T09:38:28.993Z,52.42
2022-09-12T09:40:44.336Z,53.74
2022-09-12T09:42:56.469Z,51.93
2022-09-12T09:45:02.862Z,53.65
2022-09-12T09:47:05.020Z,53.89
2022-09-12T09:49:10.681Z,53.11
2022-09-12T09:51:15.135Z,53.33
2022-09-12T09:53:28.904Z,53.36
2022-09-12T09:55:38.491Z,51.29
2022-09-12T09:57:42.042Z,53.09
2022-09-12T09:59:46.424Z,53.02
2022-09-12T10:01:51.424Z,52.08
2022-09-12T10:03:54.452Z,51.25
2022-09-12T10:06:00.037Z,52.16
2022-09-12T10:08:10.066Z,51.42
2022-09-12T10:10:16.892Z,50.00
2022-09-12T10:12:27.903Z,50.95
2022-09-12T10:14:38.651Z,52.56
2022-09-12T10:16:50.047Z,50.12
2022-09-12T10:18:53.155Z,50.80
2022-09-12T10:20:54.722Z,50.54
2022-09-12T10:22:56.565Z,49.65
2022-09-12T10:25:00.607Z,48.39
2022-09-12T10:27:09.474Z,48.11
2022-09-12T10:29:17.623Z,51.02
2022-09-12T10:31:26.442Z,46.54
2022-09-12T10:33:29.323Z,47.29
2022-09-12T10:35:42.482Z,48.25
2022-09-12T10:37:53.189Z,46.58
2022-09-12T10:39:57.050Z,46.68
2022-09-12T10:41:58.869Z,47.21
2022-09-12T10:44:07.286Z,46.37
2022-09-12T10:46:28.405Z,47.19
2022-09-12T10:48:31.815Z,49.20
2022-09-12T10:50:39.332Z,47.07
2022-09-12T10:52:40.890Z,44.95
2022-09-12T10:54:42.860Z,45.43
2022-09-12T10:56:53.359Z,44.88
2022-09-12T10:59:18.091Z,46.41
2022-09-12T11:01:37.200Z,45.20
2022-09-12T11:03:59.935Z,44.77
2022-09-12T11:06:01.943Z,45.76
2022-09-12T11:08:16.398Z,44.00
2022-09-12T11:10:37.359Z,41.09
2022-09-12T11:12:49.196Z,43.41
2022-09-12T11:15:03.297Z,44.19
2022-09-12T11:17:19.446Z,41.89
2022-09-12T11:19:56.712Z,41.15
2022-09-12T11:22:10.388Z,41.25
2022-09-12T11:24:56.420Z,42.44
2022-09-12T11:27:10.685Z,42.56
2022-09-12T11:29:20.890Z,41.55
2022-09-12T11:31:39.313Z,39.79
2022-09-12T11:33:44.934Z,38.49
2022-09-12T11:35:54.443Z,38.24
2022-09-12T11:38:14.214Z,38.35
2022-09-12T11:40:29.372Z,40.07
2022-09-12T11:42:36.707Z,41.91
2022-09-12T11:44:43.285Z,38.45
2022-09-12T11:46:48.744Z,37.88
2022-09-12T11:49:01.092Z,39.34
2022-09-12T11:51:07.496Z,37.86
2022-09-12T11:53:16.908Z,38.14
2022-09-12T11:55:22.876Z,36.12
2022-09-12T11:57:33.785Z,35.44
2022-09-12T11:59:44.442Z,35.19
2022-09-12T12:01:51.452Z,35.17
2022-09-12T12:03:53.079Z,34.27
2022-09-12T12:06:01.249Z,34.11
2022-09-12T12:08:06.698Z,33.49
2022-09-12T12:10:23.199Z,32.29
2022-09-12T12:12:28.747Z,33.60
2022-09-12T12:14:37.776Z,34.45
2022-09-12T12:16:40.895Z,34.16
2022-09-12T12:18:44.447Z,33.63
2022-09-12T12:20:46.723Z,33.90
2022-09-12T12:22:53.652Z,33.16
2022-09-12T12:25:05.950Z,32.87
2022-09-12T12:27:25.170Z,31.80
2022-09-12T12:29:42.996Z,31.07
2022-09-12T12:32:19.487Z,32.93
2022-09-12T12:34:28.607Z,34.51
2022-09-12T12:36:41.408Z,32.19
2022-09-12T12:38:44.655Z,32.81
2022-09-12T12:40:48.217Z,32.71
2022-09-12T12:43:04.823Z,34.70
2022-09-12T12:45:49.772Z,33.31
2022-09-12T12:47:53.608Z,33.61
2022-09-12T12:49:59.342Z,34.84
2022-09-12T12:52:02.104Z,33.73
2022-09-12T12:54:26.648Z,31.39
2022-09-12T12:56:40.234Z,32.40
2022-09-12T12:58:42.827Z,32.00
2022-09-12T13:00:46.378Z,32.20
2022-09-12T13:02:52.803Z,32.68
2022-09-12T13:04:56.083Z,34.78
2022-09-12T13:07:07.207Z,34.31
2022-09-12T13:09:25.785Z,32.92
2022-09-12T13:11:32.667Z,34.55
2022-09-12T13:13:38.183Z,35.09
2022-09-12T13:15:51.203Z,35.20
2022-09-12T13:17:52.994Z,35.44
2022-09-12T13:20:26.101Z,36.32
2022-09-12T13:22:25.418Z,35.36
2022-09-12T13:24:28.572Z,34.84
2022-09-12T13:26:34.487Z,37.03
2022-09-12T13:28:36.046Z,36.77
2022-09-12T13:30:40.809Z,37.52
2022-09-12T13:32:43.502Z,36.58
2022-09-12T13:35:01.006Z,33.29
2022-09-12T13:37:26.065Z,33.70
2022-09-12T13:39:35.789Z,34.46
2022-09-12T13:42:03.948Z,34.31
2022-09-12T13:44:10.002Z,34.89
2022-09-12T13:46:15.891Z,34.48
2022-09-12T13:48:21.574Z,34.13
2022-09-12T13:50:25.299Z,34.46
2022-09-12T13:52:31.844Z,36.46
2022-09-12T13:54:38.125Z,37.84
2022-09-12T13:56:47.542Z,34.57
2022-09-12T13:58:53.922Z,35.20
2022-09-12T14:01:07.505Z,36.05
2022-09-12T14:03:26.839Z,34.09
2022-09-12T14:05:28.400Z,34.38
2022-09-12T14:07:31.942Z,36.47
2022-09-12T14:09:39.987Z,34.49
2022-09-12T14:11:41.988Z,35.14
2022-09-12T14:13:43.680Z,34.09
2022-09-12T14:15:49.005Z,33.93
2022-09-12T14:17:52.964Z,33.08
2022-09-12T14:19:54.617Z,33.59
2022-09-12T14:21:56.892Z,33.37
2022-09-12T14:23:58.842Z,33.99
2022-09-12T14:26:04.865Z,32.65
2022-09-12T14:28:06.557Z,33.43
2022-09-12T14:30:21.413Z,33.35
2022-09-12T14:32:24.719Z,32.73
2022-09-12T14:34:26.209Z,32.08
2022-09-12T14:36:32.656Z,36.11
2022-09-12T14:38:37.639Z,37.67
2022-09-12T14:40:44.751Z,36.04
2022-09-12T14:42:49.964Z,32.81
2022-09-12T14:44:56.454Z,34.41
2022-09-12T14:47:10.193Z,33.82
2022-09-12T14:49:16.990Z,33.28
2022-09-12T14:51:22.361Z,33.91
2022-09-12T14:53:30.452Z,34.47
2022-09-12T14:55:34.258Z,38.15
2022-09-12T14:57:38.343Z,34.28
2022-09-12T14:59:41.310Z,33.08
2022-09-12T15:01:42.976Z,33.54
2022-09-12T15:03:50.445Z,33.77
2022-09-12T15:05:52.217Z,35.69
2022-09-12T15:08:01.261Z,34.53
2022-09-12T15:10:05.360Z,30.76
2022-09-12T15:12:09.409Z,30.65
2022-09-12T15:14:13.622Z,31.87
2022-09-12T15:16:16.686Z,31.95
2022-09-12T15:18:19.269Z,31.68
2022-09-12T15:20:20.912Z,31.93
2022-09-12T15:22:24.384Z,31.57
2022-09-12T15:24:26.018Z,34.35
2022-09-12T15:26:28.887Z,32.68
2022-09-12T15:28:31.466Z,33.57
2022-09-12T15:30:32.970Z,32.66
2022-09-12T15:32:37.225Z,31.29
2022-09-12T15:34:38.717Z,32.00
2022-09-12T15:36:40.249Z,32.61
2022-09-12T15:38:42.799Z,31.65
2022-09-12T15:40:44.440Z,32.57
2022-09-12T15:42:45.982Z,35.09
2022-09-12T15:44:47.515Z,32.41
2022-09-12T15:46:49.265Z,34.19
2022-09-12T15:48:52.175Z,31.99
2022-09-12T15:50:53.691Z,32.26
2022-09-12T15:52:55.572Z,32.23
2022-09-12T15:54:57.447Z,33.18
2022-09-12T15:56:59.083Z,32.33
2022-09-12T15:59:00.632Z,32.34
2022-09-12T16:01:02.278Z,33.53
2022-09-12T16:03:04.444Z,32.92
2022-09-12T16:05:16.259Z,32.34
2022-09-12T16:07:17.958Z,32.93
2022-09-12T16:09:19.774Z,33.20
2022-09-12T16:11:23.899Z,32.79
2022-09-12T16:13:26.363Z,32.00
2022-09-12T16:15:27.934Z,35.21
2022-09-12T16:17:29.517Z,32.98
2022-09-12T16:19:31.367Z,36.41
2022-09-12T16:21:34.462Z,34.42
2022-09-12T16:23:36.336Z,32.17
2022-09-12T16:25:37.989Z,36.82
2022-09-12T16:27:39.741Z,33.99
2022-09-12T16:29:41.272Z,33.19
2022-09-12T16:31:42.864Z,33.00
2022-09-12T16:33:44.551Z,32.57
2022-09-12T16:35:46.234Z,33.57
2022-09-12T16:37:49.590Z,32.63
2022-09-12T16:39:51.170Z,36.66
2022-09-12T16:41:52.829Z,37.55
2022-09-12T16:43:55.224Z,37.95
2022-09-12T16:46:04.384Z,38.36
2022-09-12T16:48:06.104Z,38.81
2022-09-12T16:50:08.556Z,38.11
2022-09-12T16:52:10.781Z,38.77
2022-09-12T16:54:13.865Z,39.44
2022-09-12T16:56:15.548Z,38.92
2022-09-12T16:58:17.116Z,39.12
2022-09-12T17:00:18.875Z,38.93
2022-09-12T17:02:20.448Z,39.51
2022-09-12T17:04:23.703Z,37.20
2022-09-12T17:06:26.546Z,38.95
2022-09-12T17:08:28.208Z,39.43
2022-09-12T17:10:31.308Z,39.77
2022-09-12T17:12:33.017Z,40.81
2022-09-12T17:14:34.538Z,39.75
2022-09-12T17:16:38.154Z,40.27
2022-09-12T17:18:39.982Z,40.14
2022-09-12T17:20:41.480Z,39.85
2022-09-12T17:22:43.111Z,38.84
2022-09-12T17:24:44.673Z,40.13
2022-09-12T17:26:47.784Z,40.27
2022-09-12T17:28:49.609Z,40.70
2022-09-12T17:30:55.430Z,40.28
2022-09-12T17:32:56.994Z,40.65
2022-09-12T17:34:59.032Z,40.33
2022-09-12T17:37:00.850Z,40.16
2022-09-12T17:39:03.578Z,39.80
2022-09-12T17:41:06.778Z,39.46
2022-09-12T17:43:10.317Z,39.48
2022-09-12T17:45:17.727Z,40.14
2022-09-12T17:47:20.242Z,39.99
2022-09-12T17:49:21.858Z,40.06
2022-09-12T17:51:24.806Z,40.77
2022-09-12T17:53:26.801Z,40.66
2022-09-12T17:55:28.749Z,40.79
2022-09-12T17:57:30.329Z,41.21
2022-09-12T17:59:33.427Z,40.30
2022-09-12T18:01:35.496Z,39.42
2022-09-12T18:03:37.056Z,40.56
2022-09-12T18:05:45.921Z,41.25
2022-09-12T18:07:47.565Z,39.19
2022-09-12T18:09:50.630Z,38.55
2022-09-12T18:11:53.527Z,39.92
2022-09-12T18:13:55.134Z,39.75
2022-09-12T18:16:04.129Z,40.86
2022-09-12T18:18:06.209Z,40.60
2022-09-12T18:20:08.538Z,40.18
2022-09-12T18:22:10.069Z,39.88
2022-09-12T18:24:12.279Z,39.93
2022-09-12T18:26:14.947Z,40.39
2022-09-12T18:28:16.686Z,40.92
2022-09-12T18:30:21.614Z,40.34
2022-09-12T18:32:25.013Z,42.07
2022-09-12T18:34:26.957Z,42.76
2022-09-12T18:36:31.763Z,40.61
2022-09-12T18:38:33.341Z,40.84
2022-09-12T18:40:35.113Z,40.75
2022-09-12T18:42:36.662Z,41.83
2022-09-12T18:44:38.248Z,41.58
2022-09-12T18:46:40.208Z,40.92
2022-09-12T18:48:44.238Z,41.40
2022-09-12T18:50:45.970Z,41.56
2022-09-12T18:52:47.886Z,40.80
2022-09-12T18:54:49.511Z,42.06
2022-09-12T18:56:50.988Z,41.84
2022-09-12T18:58:55.099Z,42.39
2022-09-12T19:00:57.577Z,41.59
2022-09-12T19:02:59.259Z,43.87
2022-09-12T19:05:05.245Z,42.53
2022-09-12T19:07:06.892Z,42.30
2022-09-12T19:09:09.409Z,42.09
2022-09-12T19:11:11.344Z,41.89
2022-09-12T19:13:12.890Z,42.43
2022-09-12T19:15:14.512Z,43.15
2022-09-12T19:17:16.294Z,42.72
2022-09-12T19:19:18.056Z,42.90
2022-09-12T19:21:22.583Z,43.46
2022-09-12T19:23:25.047Z,42.90
2022-09-12T19:25:27.014Z,43.60
2022-09-12T19:27:28.835Z,44.11
2022-09-12T19:29:30.946Z,45.13
2022-09-12T19:31:33.084Z,43.99
2022-09-12T19:33:35.114Z,45.04
2022-09-12T19:35:37.068Z,46.31
2022-09-12T19:37:40.203Z,46.76
2022-09-12T19:39:41.867Z,46.31
2022-09-12T19:41:44.520Z,46.70
2022-09-12T19:43:46.452Z,46.64
2022-09-12T19:45:48.360Z,46.29
2022-09-12T19:47:49.950Z,46.28
2022-09-12T19:49:51.674Z,47.89
2022-09-12T19:51:53.605Z,47.65
2022-09-12T19:53:56.755Z,49.14
2022-09-12T19:55:59.632Z,49.06
2022-09-12T19:58:01.239Z,49.38
2022-09-12T20:00:03.975Z,49.18
2022-09-12T20:02:05.696Z,49.53
2022-09-12T20:04:07.278Z,49.01
2022-09-12T20:06:10.186Z,48.45
2022-09-12T20:08:11.866Z,48.40
2022-09-12T20:10:15.375Z,48.84
2022-09-12T20:12:16.934Z,49.67
2022-09-12T20:14:18.581Z,48.51
2022-09-12T20:16:23.116Z,49.12
2022-09-12T20:18:24.887Z,49.74
2022-09-12T20:20:26.534Z,49.22
2022-09-12T20:22:28.070Z,49.27
2022-09-12T20:24:30.281Z,49.17
2022-09-12T20:26:33.732Z,50.04
2022-09-12T20:28:35.463Z,49.96
2022-09-12T20:30:37.066Z,49.58
2022-09-12T20:32:38.609Z,50.09
2022-09-12T20:34:40.467Z,49.62
2022-09-12T20:36:42.189Z,49.84
2022-09-12T20:38:47.908Z,50.23
2022-09-12T20:40:49.454Z,50.43
2022-09-12T20:42:52.817Z,51.06
2022-09-12T20:44:54.388Z,51.25
2022-09-12T20:46:56.102Z,50.68
2022-09-12T20:48:58.052Z,50.24
2022-09-12T20:50:59.740Z,50.64
2022-09-12T20:53:01.324Z,51.02
2022-09-12T20:55:02.992Z,50.91
2022-09-12T20:57:04.594Z,51.55
2022-09-12T20:59:09.692Z,52.26
2022-09-12T21:01:12.144Z,51.08
2022-09-12T21:03:14.031Z,51.70
2022-09-12T21:05:16.179Z,51.13
2022-09-12T21:07:17.769Z,50.43
2022-09-12T21:09:19.308Z,50.82
2022-09-12T21:11:20.925Z,50.81
2022-09-12T21:13:22.469Z,51.32
2022-09-12T21:15:25.473Z,49.81
2022-09-12T21:17:26.973Z,49.00
2022-09-12T21:19:28.507Z,50.00
2022-09-12T21:21:31.642Z,49.57
2022-09-12T21:23:33.677Z,50.48
2022-09-12T21:25:35.182Z,49.66
2022-09-12T21:27:36.737Z,50.04
2022-09-12T21:29:38.451Z,50.68
2022-09-12T21:31:42.676Z,48.79
2022-09-12T21:33:44.224Z,49.89
2022-09-12T21:35:45.875Z,48.84
2022-09-12T21:37:47.482Z,48.94
2022-09-12T21:39:49.123Z,49.30
2022-09-12T21:41:50.673Z,48.12
2022-09-12T21:43:52.188Z,49.39
2022-09-12T21:45:57.418Z,48.37
2022-09-12T21:48:00.952Z,47.57
2022-09-12T21:50:02.457Z,49.19
2022-09-12T21:52:04.061Z,48.63
2022-09-12T21:54:05.838Z,48.21
2022-09-12T21:56:08.813Z,47.63
2022-09-12T21:58:10.519Z,48.12
2022-09-12T22:00:17.572Z,47.24
2022-09-12T22:02:19.524Z,47.73
2022-09-12T22:04:22.686Z,47.19
2022-09-12T22:06:24.163Z,46.71
2022-09-12T22:08:26.438Z,46.63
2022-09-12T22:10:29.320Z,46.94
2022-09-12T22:12:30.860Z,47.42
2022-09-12T22:14:32.328Z,47.41
2022-09-12T22:16:33.922Z,47.35
2022-09-12T22:18:36.512Z,48.08
2022-09-12T22:20:39.316Z,47.61
2022-09-12T22:22:43.681Z,48.18
2022-09-12T22:24:45.534Z,48.51
2022-09-12T22:26:47.392Z,48.98
2022-09-12T22:28:49.386Z,49.86
2022-09-12T22:30:52.273Z,50.61
2022-09-12T22:32:54.027Z,50.22
2022-09-12T22:34:55.655Z,49.69
2022-09-12T22:36:58.540Z,50.05
2022-09-12T22:39:00.312Z,50.45
2022-09-12T22:41:06.320Z,50.76
2022-09-12T22:43:07.812Z,50.78
2022-09-12T22:45:10.063Z,50.49
2022-09-12T22:47:11.615Z,50.68
2022-09-12T22:49:13.108Z,51.09
2022-09-12T22:51:14.625Z,51.43
2022-09-12T22:53:17.481Z,51.27
2022-09-12T22:55:19.016Z,50.83
2022-09-12T22:57:20.537Z,49.97
2022-09-12T22:59:22.025Z,50.39
2022-09-12T23:01:23.519Z,50.71
2022-09-12T23:03:25.090Z,50.96
2022-09-12T23:05:26.659Z,50.87
2022-09-12T23:07:28.273Z,51.12
2022-09-12T23:09:35.361Z,51.52
2022-09-12T23:11:37.282Z,50.51
2022-09-12T23:13:41.005Z,51.36
2022-09-12T23:15:42.515Z,51.85
2022-09-12T23:17:44.013Z,51.97
2022-09-12T23:19:45.677Z,51.72
2022-09-12T23:21:48.529Z,51.91
2022-09-12T23:23:50.700Z,51.70
2022-09-12T23:26:03.158Z,51.02
2022-09-12T23:28:04.631Z,52.07
2022-09-12T23:30:07.157Z,51.62
2022-09-12T23:32:08.687Z,52.11
2022-09-12T23:34:10.239Z,51.83
2022-09-12T23:36:13.204Z,51.72
2022-09-12T23:38:14.887Z,51.57
2022-09-12T23:40:16.459Z,51.09
2022-09-12T23:42:19.312Z,51.97
2022-09-12T23:44:20.804Z,51.97
2022-09-12T23:46:23.401Z,51.32
2022-09-12T23:48:25.526Z,51.14
2022-09-12T23:50:27.309Z,51.61
2022-09-12T23:52:30.138Z,51.78
2022-09-12T23:54:31.662Z,52.32
2022-09-12T23:56:33.130Z,51.72
2022-09-12T23:58:36.075Z,52.14
